Time;durP1;ratioP1;P1;durP2;ratioP2;P2;SDS_P1;SDS_P2;PMS_P1;PMS_P2;Temp;Humidity;BMP_temperature;BMP_pressure;BME280_temperature;BME280_humidity;BME280_pressure;Samples;Min_cycle;Max_cycle;Signal;HPM_P1;HPM_P2
2023/03/23 00:00:00;;;;;;;10.93;7.53;;;12.60;99.90;;;;;;5072840;28;20185;-74
2023/03/23 00:02:35;;;;;;;9.90;6.82;;;12.20;99.90;;;;;;5072918;28;20046;-73
2023/03/23 00:05:03;;;;;;;13.02;9.32;;;12.40;99.90;;;;;;5072871;28;20046;-73
2023/03/23 00:07:29;;;;;;;14.00;9.40;;;12.40;99.90;;;;;;5073071;28;20072;-73
2023/03/23 00:09:55;;;;;;;16.90;12.57;;;12.60;99.90;;;;;;5072874;28;20488;-73
2023/03/23 00:12:33;;;;;;;19.13;14.43;;;12.50;99.90;;;;;;5072691;28;20511;-73
2023/03/23 00:15:12;;;;;;;22.38;14.15;;;12.20;99.90;;;;;;5072775;28;20048;-73
2023/03/23 00:17:40;;;;;;;23.30;15.63;;;12.40;99.90;;;;;;5072855;28;20044;-73
2023/03/23 00:20:06;;;;;;;20.83;15.60;;;12.40;99.90;;;;;;5072725;28;20083;-73
2023/03/23 00:22:37;;;;;;;19.35;15.95;;;;;;;;;;5072606;28;20051;-73
2023/03/23 00:25:03;;;;;;;27.08;18.70;;;;;;;;;;5055574;28;20476;-73
2023/03/23 00:27:29;;;;;;;26.17;18.50;;;12.60;99.90;;;;;;5055968;28;20249;-73
2023/03/23 00:29:55;;;;;;;25.17;17.58;;;12.50;99.90;;;;;;5072634;28;20148;-73
2023/03/23 00:32:28;;;;;;;25.48;17.40;;;12.40;99.90;;;;;;5072388;28;20044;-73
2023/03/23 00:34:55;;;;;;;25.48;17.63;;;12.20;99.90;;;;;;5055816;28;20416;-73
2023/03/23 00:37:21;;;;;;;26.02;18.23;;;12.30;99.90;;;;;;5072684;28;20071;-73
2023/03/23 00:39:47;;;;;;;24.05;17.35;;;12.40;99.90;;;;;;5055574;28;20496;-73
2023/03/23 00:42:15;;;;;;;23.92;16.50;;;12.70;99.90;;;;;;5072436;28;20509;-73
2023/03/23 00:44:41;;;;;;;22.90;15.25;;;;;;;;;;5072233;28;20702;-73
2023/03/23 00:47:09;;;;;;;15.85;12.43;;;12.30;99.90;;;;;;5072318;28;20040;-73
2023/03/23 00:49:34;;;;;;;13.18;9.20;;;12.20;99.90;;;;;;5072554;28;20045;-73
2023/03/23 00:52:01;;;;;;;8.98;7.88;;;12.40;99.90;;;;;;5072019;28;20097;-73
2023/03/23 00:54:27;;;;;;;10.88;6.72;;;;;;;;;;5071987;28;20044;-73
2023/03/23 00:56:54;;;;;;;12.20;6.88;;;;;;;;;;5055406;28;20048;-73
2023/03/23 00:59:21;;;;;;;10.43;6.60;;;12.60;99.90;;;;;;5071993;28;20040;-73
2023/03/23 01:01:47;;;;;;;9.50;5.80;;;;;;;;;;5055408;28;20442;-71
2023/03/23 01:04:14;;;;;;;8.65;6.50;;;;;;;;;;5071536;28;20045;-73
2023/03/23 01:06:42;;;;;;;12.80;6.82;;;12.70;99.90;;;;;;5056026;28;20072;-73
2023/03/23 01:09:10;;;;;;;9.88;6.40;;;12.10;99.90;;;;;;5074000;28;20491;-73
2023/03/23 01:11:37;;;;;;;10.73;6.80;;;;;;;;;;5055016;28;20052;-73
2023/03/23 01:14:04;;;;;;;14.48;7.18;;;12.30;99.90;;;;;;5071921;28;20411;-73
2023/03/23 01:16:30;;;;;;;13.82;7.25;;;;;;;;;;5071664;28;20482;-73
2023/03/23 01:18:55;;;;;;;12.07;7.53;;;12.40;99.90;;;;;;5071675;28;20090;-73
2023/03/23 01:21:21;;;;;;;10.75;6.85;;;12.60;99.90;;;;;;5071334;28;20071;-73
2023/03/23 01:23:48;;;;;;;11.27;7.85;;;12.80;99.90;;;;;;5071392;28;20040;-73
2023/03/23 01:26:17;;;;;;;12.20;8.07;;;12.30;99.90;;;;;;5071501;28;20040;-73
2023/03/23 01:28:43;;;;;;;11.80;8.13;;;12.30;99.90;;;;;;5071453;28;20050;-73
2023/03/23 01:31:15;;;;;;;13.50;7.82;;;12.40;99.90;;;;;;5071228;28;20036;-73
2023/03/23 01:33:42;;;;;;;14.90;9.13;;;;;;;;;;5054493;28;20067;-73
2023/03/23 01:36:12;;;;;;;15.75;9.20;;;12.20;99.90;;;;;;5070742;28;20396;-73
2023/03/23 01:38:37;;;;;;;17.00;9.38;;;12.50;99.90;;;;;;5054516;28;20125;-73
2023/03/23 01:41:04;;;;;;;13.48;8.93;;;12.70;99.90;;;;;;5054361;28;20456;-73
2023/03/23 01:43:31;;;;;;;17.35;9.10;;;;;;;;;;5069025;28;20122;-73
2023/03/23 01:45:57;;;;;;;14.63;9.35;;;;;;;;;;5054569;28;20028;-73
2023/03/23 01:48:36;;;;;;;14.43;9.20;;;12.70;99.90;;;;;;5071123;28;20044;-73
2023/03/23 01:51:10;;;;;;;13.80;8.48;;;12.80;99.90;;;;;;5071238;28;20608;-73
2023/03/23 01:53:45;;;;;;;16.10;8.93;;;12.30;99.90;;;;;;5070864;28;20071;-73
2023/03/23 01:56:13;;;;;;;18.35;9.10;;;12.70;99.90;;;;;;5070929;28;20511;-73
2023/03/23 01:58:40;;;;;;;12.55;8.50;;;12.70;99.90;;;;;;5070567;28;20090;-74
2023/03/23 02:01:11;;;;;;;12.68;8.23;;;12.80;99.90;;;;;;5070969;28;20041;-73
2023/03/23 02:03:41;;;;;;;12.65;8.45;;;12.80;99.90;;;;;;5071032;28;20161;-73
2023/03/23 02:06:07;;;;;;;17.88;8.52;;;12.90;99.90;;;;;;5070814;28;20086;-73
2023/03/23 02:08:35;;;;;;;15.43;8.73;;;12.70;99.90;;;;;;5070688;28;20530;-73
2023/03/23 02:11:00;;;;;;;13.13;7.15;;;12.50;99.90;;;;;;5054244;28;20407;-73
2023/03/23 02:13:28;;;;;;;11.32;8.68;;;12.60;99.90;;;;;;5070345;28;20036;-73
2023/03/23 02:15:54;;;;;;;16.30;7.20;;;;;;;;;;5070841;28;20048;-73
2023/03/23 02:18:44;;;;;;;13.30;7.00;;;12.60;99.90;;;;;;5053939;28;20521;-73
2023/03/23 02:21:26;;;;;;;12.75;7.70;;;12.90;99.90;;;;;;5070373;28;20082;-73
2023/03/23 02:24:21;;;;;;;9.55;7.07;;;12.70;99.90;;;;;;5070105;28;20553;-73
2023/03/23 02:27:08;;;;;;;9.73;6.80;;;12.60;99.90;;;;;;5070593;28;20036;-73
2023/03/23 02:29:46;;;;;;;8.60;6.38;;;12.60;99.90;;;;;;5070620;28;20093;-74
2023/03/23 02:32:12;;;;;;;9.50;7.15;;;;;;;;;;5070431;28;20048;-73
2023/03/23 02:34:42;;;;;;;9.40;6.53;;;12.80;99.90;;;;;;5070284;28;20499;-73
2023/03/23 02:37:14;;;;;;;12.25;6.90;;;12.70;99.90;;;;;;5070503;28;20044;-73
2023/03/23 02:39:53;;;;;;;11.68;7.47;;;12.70;99.90;;;;;;5070291;28;20115;-73
2023/03/23 02:42:25;;;;;;;8.52;6.35;;;13.10;99.90;;;;;;5070926;28;20036;-73
2023/03/23 02:44:54;;;;;;;9.00;5.63;;;12.50;99.90;;;;;;5074392;28;20040;-73
2023/03/23 02:47:25;;;;;;;14.30;6.47;;;12.60;99.90;;;;;;5074296;28;20072;-73
2023/03/23 02:49:54;;;;;;;11.80;6.28;;;12.70;99.90;;;;;;5071810;28;20045;-73
2023/03/23 02:52:24;;;;;;;10.32;6.00;;;12.60;99.90;;;;;;5053324;28;20040;-73
2023/03/23 02:54:51;;;;;;;9.15;6.18;;;12.90;99.90;;;;;;5070044;28;20044;-73
2023/03/23 02:57:18;;;;;;;9.02;5.40;;;;;;;;;;5070414;28;20044;-73
2023/03/23 02:59:44;;;;;;;9.15;5.57;;;12.90;99.90;;;;;;5070200;28;20052;-73
2023/03/23 03:02:17;;;;;;;13.75;6.43;;;12.60;99.90;;;;;;5053220;28;20037;-73
2023/03/23 03:04:54;;;;;;;10.68;6.68;;;12.90;99.90;;;;;;5053222;28;20040;-73
2023/03/23 03:07:45;;;;;;;13.10;5.97;;;12.90;99.90;;;;;;5070121;28;20051;-73
2023/03/23 03:10:28;;;;;;;10.68;5.95;;;12.80;99.90;;;;;;5070367;28;20117;-73
2023/03/23 03:13:03;;;;;;;11.07;5.47;;;12.70;99.90;;;;;;5070288;28;20412;-73
2023/03/23 03:16:06;;;;;;;14.63;5.88;;;12.70;99.90;;;;;;5053367;28;20518;-73
2023/03/23 03:19:01;;;;;;;8.65;5.25;;;12.70;99.90;;;;;;5056631;28;20099;-73
2023/03/23 03:21:30;;;;;;;9.10;5.45;;;12.80;99.90;;;;;;5069844;28;20044;-73
2023/03/23 03:24:00;;;;;;;9.90;5.65;;;12.60;99.90;;;;;;5069933;28;20043;-73
2023/03/23 03:26:27;;;;;;;8.10;5.13;;;;;;;;;;5069815;28;20066;-73
2023/03/23 03:28:53;;;;;;;9.68;4.50;;;;;;;;;;5070113;28;20476;-73
2023/03/23 03:31:23;;;;;;;11.05;6.32;;;13.20;99.90;;;;;;5052911;28;20523;-72
2023/03/23 03:33:50;;;;;;;14.88;5.35;;;13.00;99.90;;;;;;5069713;28;20044;-73
2023/03/23 03:36:20;;;;;;;8.57;5.15;;;12.70;99.90;;;;;;5053098;28;20535;-74
2023/03/23 03:38:49;;;;;;;15.82;5.68;;;12.80;99.90;;;;;;5069425;28;20041;-73
2023/03/23 03:41:15;;;;;;;9.35;5.53;;;;;;;;;;5069645;28;20040;-73
2023/03/23 03:43:41;;;;;;;11.23;5.93;;;12.70;99.90;;;;;;5069439;28;20098;-73
2023/03/23 03:46:07;;;;;;;10.60;6.38;;;;;;;;;;5052981;28;20037;-73
2023/03/23 03:48:34;;;;;;;12.90;5.60;;;12.60;99.90;;;;;;5052840;28;20570;-73
2023/03/23 03:51:00;;;;;;;13.80;5.55;;;12.50;99.90;;;;;;5052971;28;20522;-73
2023/03/23 03:53:27;;;;;;;11.55;6.00;;;12.60;99.90;;;;;;5069103;28;20036;-73
2023/03/23 03:55:59;;;;;;;11.10;5.72;;;12.60;99.90;;;;;;5069958;28;20438;-73
2023/03/23 03:58:31;;;;;;;7.78;4.53;;;12.60;99.90;;;;;;5052794;28;20040;-74
2023/03/23 04:00:58;;;;;;;9.57;4.47;;;12.40;99.90;;;;;;5073001;28;20032;-74
2023/03/23 04:03:25;;;;;;;19.83;5.32;;;12.50;99.90;;;;;;5072945;28;20400;-74
2023/03/23 04:05:52;;;;;;;9.07;3.90;;;;;;;;;;5072470;28;20491;-73
2023/03/23 04:08:18;;;;;;;6.07;3.15;;;;;;;;;;5056338;28;20037;-73
2023/03/23 04:10:44;;;;;;;4.40;3.10;;;12.60;99.90;;;;;;5072986;28;20059;-72
2023/03/23 04:13:09;;;;;;;7.93;3.78;;;12.50;99.90;;;;;;5072836;28;20028;-73
2023/03/23 04:15:36;;;;;;;9.30;4.03;;;;;;;;;;5072916;28;20072;-73
2023/03/23 04:18:02;;;;;;;8.52;3.60;;;12.40;99.90;;;;;;5072785;28;20033;-73
2023/03/23 04:20:27;;;;;;;6.18;3.42;;;;;;;;;;5072587;28;20036;-72
2023/03/23 04:22:54;;;;;;;10.35;3.72;;;12.30;99.90;;;;;;5072827;28;20038;-73
2023/03/23 04:25:21;;;;;;;7.88;3.92;;;12.40;99.90;;;;;;5072675;28;20040;-73
2023/03/23 04:27:53;;;;;;;8.35;3.85;;;12.50;99.90;;;;;;5072555;28;20046;-73
2023/03/23 04:30:21;;;;;;;5.78;2.47;;;12.20;99.90;;;;;;5072923;28;20048;-73
2023/03/23 04:32:51;;;;;;;6.97;2.40;;;12.10;99.90;;;;;;5072542;28;20087;-73
2023/03/23 04:35:19;;;;;;;9.90;2.50;;;12.20;99.90;;;;;;5072430;28;20048;-73
2023/03/23 04:37:45;;;;;;;6.68;1.85;;;12.30;99.90;;;;;;5072470;28;20051;-73
2023/03/23 04:40:14;;;;;;;9.73;2.15;;;12.30;99.90;;;;;;5072494;28;20499;-73
2023/03/23 04:42:45;;;;;;;8.65;2.88;;;12.30;99.90;;;;;;5072076;28;20047;-73
2023/03/23 04:45:21;;;;;;;5.97;1.95;;;12.30;99.90;;;;;;5072369;28;20076;-73
2023/03/23 04:47:57;;;;;;;8.65;2.40;;;12.50;99.90;;;;;;5072248;28;20547;-73
2023/03/23 04:50:23;;;;;;;7.03;2.35;;;;;;;;;;5072256;28;20082;-73
2023/03/23 04:52:51;;;;;;;11.45;2.50;;;12.40;99.90;;;;;;5072227;28;20048;-73
2023/03/23 04:55:17;;;;;;;7.97;2.33;;;;;;;;;;5071916;28;20068;-73
2023/03/23 04:57:44;;;;;;;9.98;3.03;;;;;;;;;;5072321;28;20040;-73
2023/03/23 05:00:16;;;;;;;14.65;3.65;;;12.20;99.90;;;;;;5055192;28;20044;-73
2023/03/23 05:02:43;;;;;;;10.18;3.80;;;12.30;99.90;;;;;;5072104;28;20064;-73
2023/03/23 05:05:11;;;;;;;9.80;3.67;;;12.10;99.90;;;;;;5071844;28;20036;-73
2023/03/23 05:07:38;;;;;;;9.55;3.53;;;12.30;99.90;;;;;;5071959;28;20040;-73
2023/03/23 05:10:06;;;;;;;17.05;4.05;;;12.40;99.90;;;;;;5071471;28;20040;-73
2023/03/23 05:12:32;;;;;;;16.70;3.65;;;;;;;;;;5070986;28;20040;-73
2023/03/23 05:14:58;;;;;;;10.73;2.95;;;;;;;;;;5071919;28;20449;-73
2023/03/23 05:17:24;;;;;;;17.85;3.55;;;12.20;99.90;;;;;;5071670;28;20534;-73
2023/03/23 05:19:51;;;;;;;15.73;4.22;;;;;;;;;;5071575;28;20083;-73
2023/03/23 05:22:17;;;;;;;14.45;3.10;;;12.50;99.90;;;;;;5071636;28;20109;-74
2023/03/23 05:24:43;;;;;;;19.80;4.38;;;;;;;;;;5071682;28;20036;-73
2023/03/23 05:27:11;;;;;;;19.52;4.68;;;12.20;99.90;;;;;;5069822;28;20119;-73
2023/03/23 05:29:37;;;;;;;21.95;3.95;;;;;;;;;;5071858;28;20062;-73
2023/03/23 05:32:05;;;;;;;20.50;4.63;;;12.20;99.90;;;;;;5081627;28;20036;-73
2023/03/23 05:34:32;;;;;;;21.27;4.18;;;;;;;;;;5091255;28;20518;-73
2023/03/23 05:37:00;;;;;;;20.95;4.30;;;12.20;99.90;;;;;;5091427;28;20048;-73
2023/03/23 05:39:26;;;;;;;26.75;4.03;;;12.10;99.90;;;;;;5091260;28;20044;-72
2023/03/23 05:41:52;;;;;;;20.05;4.20;;;12.10;99.90;;;;;;5074881;28;20090;-72
2023/03/23 05:44:18;;;;;;;16.45;3.65;;;;;;;;;;5074241;28;20500;-73
2023/03/23 05:46:44;;;;;;;21.13;4.32;;;12.20;99.90;;;;;;5091540;28;20450;-74
2023/03/23 05:49:10;;;;;;;15.57;3.80;;;12.20;99.90;;;;;;5091574;28;20499;-73
2023/03/23 05:51:36;;;;;;;20.88;3.65;;;;;;;;;;5091252;28;20032;-73
2023/03/23 05:54:03;;;;;;;19.02;4.50;;;;;;;;;;5090986;28;20043;-73
2023/03/23 05:56:30;;;;;;;16.67;4.25;;;12.30;99.90;;;;;;5090813;28;20055;-73
2023/03/23 05:58:56;;;;;;;29.33;4.38;;;;;;;;;;5091372;28;20123;-73
2023/03/23 06:01:23;;;;;;;19.58;3.95;;;;;;;;;;5085145;28;20604;-74
2023/03/23 06:03:51;;;;;;;23.65;5.32;;;;;;;;;;5071182;28;20040;-73
2023/03/23 06:06:18;;;;;;;26.33;4.50;;;;;;;;;;5065677;28;20509;-73
2023/03/23 06:08:44;;;;;;;33.80;5.30;;;12.40;99.90;;;;;;5067149;28;20045;-74
2023/03/23 06:11:10;;;;;;;17.27;4.13;;;;;;;;;;5066759;28;20112;-73
2023/03/23 06:13:36;;;;;;;20.10;4.60;;;12.20;99.90;;;;;;5049856;28;20055;-73
2023/03/23 06:16:03;;;;;;;15.38;3.67;;;;;;;;;;5067050;28;20048;-69
2023/03/23 06:18:33;;;;;;;17.30;3.72;;;12.20;99.90;;;;;;5067058;28;20132;-73
2023/03/23 06:20:59;;;;;;;16.85;3.20;;;;;;;;;;5066871;28;20594;-73
2023/03/23 06:23:26;;;;;;;15.73;4.03;;;;;;;;;;5066224;28;20450;-73
2023/03/23 06:25:58;;;;;;;20.83;4.20;;;11.90;99.90;;;;;;5050298;28;20043;-73
2023/03/23 06:28:24;;;;;;;13.75;3.30;;;11.90;99.90;;;;;;5066789;28;20041;-72
2023/03/23 06:30:50;;;;;;;21.83;3.72;;;;;;;;;;5066686;28;20036;-74
2023/03/23 06:33:17;;;;;;;17.48;3.50;;;;;;;;;;5061504;28;20095;-74
2023/03/23 06:35:43;;;;;;;15.65;3.38;;;;;;;;;;5068269;28;20403;-74
2023/03/23 06:38:09;;;;;;;18.67;3.33;;;;;;;;;;5077435;28;20051;-74
2023/03/23 06:40:38;;;;;;;8.13;2.45;;;;;;;;;;5081517;28;20040;-73
2023/03/23 06:43:04;;;;;;;11.43;2.25;;;11.60;99.90;;;;;;5089867;28;20040;-74
2023/03/23 06:45:30;;;;;;;14.70;3.47;;;;;;;;;;5089873;28;20042;-74
2023/03/23 06:47:56;;;;;;;15.57;3.95;;;11.70;99.90;;;;;;5073522;28;20067;-73
2023/03/23 06:50:22;;;;;;;18.73;3.85;;;11.70;99.90;;;;;;5073560;28;20055;-72
2023/03/23 06:52:50;;;;;;;18.63;4.30;;;11.80;99.90;;;;;;5089898;28;20043;-73
2023/03/23 06:55:16;;;;;;;21.40;5.15;;;;;;;;;;5090130;28;20087;-74
2023/03/23 06:57:42;;;;;;;26.17;4.43;;;11.90;99.90;;;;;;5073518;28;20126;-74
2023/03/23 07:00:12;;;;;;;24.40;4.45;;;11.90;99.90;;;;;;5090218;28;20124;-73
2023/03/23 07:02:38;;;;;;;31.55;4.90;;;11.90;99.90;;;;;;5090168;28;20036;-73
2023/03/23 07:05:05;;;;;;;21.25;4.22;;;12.00;99.90;;;;;;5090277;28;20402;-73
2023/03/23 07:07:30;;;;;;;29.63;4.53;;;12.10;99.90;;;;;;5090725;28;20036;-74
2023/03/23 07:09:57;;;;;;;27.25;4.55;;;;;;;;;;5073082;28;20127;-73
2023/03/23 07:12:24;;;;;;;29.38;5.80;;;12.20;99.90;;;;;;5073474;28;20067;-73
2023/03/23 07:14:50;;;;;;;38.58;6.15;;;;;;;;;;5090050;28;20126;-74
2023/03/23 07:17:16;;;;;;;35.00;5.38;;;;;;;;;;5090102;28;20128;-74
2023/03/23 07:19:41;;;;;;;21.08;4.75;;;12.20;99.90;;;;;;5073105;28;20047;-74
2023/03/23 07:22:07;;;;;;;33.25;6.53;;;12.20;99.90;;;;;;5090130;28;20040;-74
2023/03/23 07:24:34;;;;;;;26.23;5.40;;;12.30;99.90;;;;;;5089862;28;20070;-74
2023/03/23 07:26:59;;;;;;;24.10;4.85;;;12.40;99.90;;;;;;5090086;28;20499;-74
2023/03/23 07:29:26;;;;;;;35.50;7.13;;;12.40;99.90;;;;;;5073646;28;20066;-74
2023/03/23 07:31:52;;;;;;;33.67;5.75;;;12.30;99.90;;;;;;5092158;28;20036;-74
2023/03/23 07:34:19;;;;;;;28.38;6.10;;;12.50;99.90;;;;;;5075375;28;20066;-74
2023/03/23 07:36:45;;;;;;;33.10;5.97;;;;;;;;;;5093861;28;20036;-74
2023/03/23 07:39:11;;;;;;;36.42;6.13;;;12.40;99.90;;;;;;5093733;28;20036;-74
2023/03/23 07:41:38;;;;;;;32.60;4.72;;;12.20;99.90;;;;;;5093710;28;20052;-74
2023/03/23 07:44:05;;;;;;;27.85;5.93;;;12.50;99.90;;;;;;5076626;28;20138;-74
2023/03/23 07:46:31;;;;;;;24.67;5.97;;;12.40;99.90;;;;;;5077225;28;20043;-74
2023/03/23 07:48:57;;;;;;;31.23;5.70;;;;;;;;;;5076782;28;20048;-73
2023/03/23 07:51:23;;;;;;;31.38;5.32;;;12.40;99.90;;;;;;5093487;28;20438;-74
2023/03/23 07:53:49;;;;;;;30.02;6.30;;;12.50;99.90;;;;;;5076426;28;20089;-74
2023/03/23 07:56:18;;;;;;;32.97;6.68;;;;;;;;;;5093532;28;20039;-74
2023/03/23 07:58:45;;;;;;;22.80;4.43;;;12.40;99.90;;;;;;5076707;28;20060;-74
2023/03/23 08:01:12;;;;;;;29.77;6.72;;;12.40;99.90;;;;;;5077833;28;20415;-74
2023/03/23 08:03:38;;;;;;;26.30;4.63;;;;;;;;;;5094079;28;20036;-73
2023/03/23 08:06:05;;;;;;;29.40;5.40;;;12.40;99.90;;;;;;5076414;28;20051;-73
2023/03/23 08:08:31;;;;;;;37.60;6.32;;;;;;;;;;5093222;28;20134;-74
2023/03/23 08:10:57;;;;;;;34.92;6.45;;;;;;;;;;5076272;28;20047;-74
2023/03/23 08:13:24;;;;;;;26.02;5.15;;;;;;;;;;5075928;28;20119;-73
2023/03/23 08:15:50;;;;;;;28.08;4.53;;;12.60;99.90;;;;;;5093418;28;20566;-74
2023/03/23 08:18:15;;;;;;;35.08;6.30;;;12.40;99.90;;;;;;5092962;28;20443;-74
2023/03/23 08:20:42;;;;;;;25.77;5.35;;;;;;;;;;5093225;28;20059;-73
2023/03/23 08:23:08;;;;;;;32.15;5.43;;;12.50;99.90;;;;;;5092882;28;20522;-74
2023/03/23 08:25:35;;;;;;;38.40;6.75;;;;;;;;;;5093128;28;20043;-74
2023/03/23 08:28:01;;;;;;;37.38;7.25;;;12.60;99.90;;;;;;5093178;28;20403;-74
2023/03/23 08:30:29;;;;;;;42.05;6.57;;;12.60;99.90;;;;;;5075813;28;20040;-73
2023/03/23 08:32:58;;;;;;;27.85;5.07;;;12.50;99.90;;;;;;5092827;28;20036;-74
2023/03/23 08:35:24;;;;;;;38.90;6.43;;;12.70;99.90;;;;;;5093052;28;20039;-74
2023/03/23 08:37:51;;;;;;;25.75;5.95;;;12.80;99.90;;;;;;5092745;28;20075;-74
2023/03/23 08:40:19;;;;;;;42.47;8.05;;;12.90;99.90;;;;;;5075735;28;20036;-74
2023/03/23 08:42:45;;;;;;;34.65;6.78;;;13.10;99.90;;;;;;5092614;28;20437;-74
2023/03/23 08:45:14;;;;;;;28.80;5.53;;;13.10;99.90;;;;;;5092068;28;20032;-74
2023/03/23 08:47:40;;;;;;;26.60;5.70;;;13.00;99.90;;;;;;5075643;28;20036;-74
2023/03/23 08:50:10;;;;;;;39.10;6.60;;;13.30;99.90;;;;;;5092800;28;20471;-74
2023/03/23 08:52:37;;;;;;;46.85;8.07;;;13.30;99.90;;;;;;5092268;28;20047;-74
2023/03/23 08:55:03;;;;;;;33.88;6.40;;;13.40;99.90;;;;;;5092204;28;20125;-74
2023/03/23 08:57:29;;;;;;;37.63;6.78;;;13.20;99.90;;;;;;5092341;28;20078;-74
2023/03/23 08:59:59;;;;;;;30.90;7.68;;;13.20;99.90;;;;;;5092104;28;20401;-74
2023/03/23 09:02:26;;;;;;;29.30;6.53;;;13.30;99.90;;;;;;5092186;28;20131;-74
2023/03/23 09:04:53;;;;;;;40.08;6.88;;;13.40;99.90;;;;;;5092501;28;20402;-74
2023/03/23 09:07:19;;;;;;;30.00;5.70;;;13.70;99.90;;;;;;5092301;28;20407;-74
2023/03/23 09:09:44;;;;;;;34.35;6.93;;;13.50;99.90;;;;;;5075211;28;20036;-74
2023/03/23 09:12:11;;;;;;;35.92;7.30;;;;;;;;;;5091767;28;20449;-74
2023/03/23 09:14:37;;;;;;;29.85;6.15;;;13.60;99.90;;;;;;5092124;28;20411;-74
2023/03/23 09:17:04;;;;;;;25.10;5.60;;;13.80;99.90;;;;;;5092021;28;20036;-74
2023/03/23 09:19:32;;;;;;;28.88;6.72;;;14.10;99.90;;;;;;5075380;28;20342;-74
2023/03/23 09:21:59;;;;;;;39.72;5.90;;;14.10;99.90;;;;;;5092766;28;20059;-74
2023/03/23 09:24:25;;;;;;;34.20;6.18;;;14.90;99.90;;;;;;5075602;28;20047;-74
2023/03/23 09:26:51;;;;;;;37.22;7.60;;;14.30;99.90;;;;;;5075322;28;20119;-74
2023/03/23 09:29:16;;;;;;;34.85;6.65;;;14.90;99.90;;;;;;5091745;28;20169;-74
2023/03/23 09:31:42;;;;;;;33.35;6.47;;;14.80;99.90;;;;;;5091530;28;20075;-74
2023/03/23 09:34:09;;;;;;;27.80;5.72;;;;;;;;;;5091474;28;20048;-74
2023/03/23 09:36:36;;;;;;;26.98;6.15;;;14.40;99.90;;;;;;5091553;28;20050;-74
2023/03/23 09:39:07;;;;;;;32.25;6.53;;;;;;;;;;5091788;28;20083;-73
2023/03/23 09:42:02;;;;;;;27.45;5.65;;;14.60;99.90;;;;;;5091508;28;20100;-74
2023/03/23 09:44:30;;;;;;;36.85;7.10;;;14.10;99.90;;;;;;5091266;28;20415;-74
2023/03/23 09:47:12;;;;;;;33.53;5.18;;;14.10;99.90;;;;;;5091385;28;20123;-73
2023/03/23 09:49:40;;;;;;;27.98;6.53;;;14.00;99.90;;;;;;5074625;28;20048;-74
2023/03/23 09:52:12;;;;;;;28.50;6.32;;;13.70;99.90;;;;;;5091108;28;20040;-74
2023/03/23 09:54:41;;;;;;;30.85;5.68;;;14.00;99.90;;;;;;5074227;28;20044;-74
2023/03/23 09:57:37;;;;;;;29.27;5.72;;;14.20;99.90;;;;;;5073931;28;20491;-74
2023/03/23 10:00:16;;;;;;;26.55;5.20;;;15.10;99.90;;;;;;5090650;28;20048;-74
2023/03/23 10:03:01;;;;;;;30.45;4.88;;;14.40;99.90;;;;;;5074153;28;20032;-74
2023/03/23 10:05:36;;;;;;;24.33;5.25;;;14.70;99.90;;;;;;5074297;28;20423;-74
2023/03/23 10:08:10;;;;;;;24.30;6.05;;;14.70;99.90;;;;;;5074104;28;20044;-74
2023/03/23 10:11:12;;;;;;;28.02;6.07;;;14.70;99.90;;;;;;5090287;28;20051;-74
2023/03/23 10:13:38;;;;;;;21.70;5.30;;;15.00;99.90;;;;;;5066647;28;20059;-74
2023/03/23 10:16:29;;;;;;;30.13;5.70;;;15.20;99.90;;;;;;5069443;28;20044;-74
2023/03/23 10:19:01;;;;;;;24.25;5.05;;;14.90;99.90;;;;;;5052969;28;20440;-74
2023/03/23 10:21:30;;;;;;;22.15;5.13;;;15.00;99.90;;;;;;5051826;28;20064;-74
2023/03/23 10:24:00;;;;;;;19.25;4.68;;;15.20;99.90;;;;;;5071148;28;20036;-74
2023/03/23 10:26:35;;;;;;;29.98;4.97;;;15.10;99.90;;;;;;5077497;28;20097;-74
2023/03/23 10:29:23;;;;;;;21.15;4.40;;;15.20;99.90;;;;;;5065804;28;20037;-74
2023/03/23 10:32:11;;;;;;;26.75;5.72;;;15.20;99.90;;;;;;5083873;28;20404;-74
2023/03/23 10:34:49;;;;;;;23.02;4.68;;;14.60;99.90;;;;;;5057611;28;20040;-74
2023/03/23 10:37:25;;;;;;;22.23;4.55;;;14.80;99.90;;;;;;5050308;28;20083;-74
2023/03/23 10:40:00;;;;;;;24.02;6.30;;;14.90;99.90;;;;;;5050500;28;20044;-74
2023/03/23 10:42:32;;;;;;;30.48;6.82;;;14.50;99.90;;;;;;5054806;28;20060;-74
2023/03/23 10:45:10;;;;;;;27.10;5.35;;;14.50;99.90;;;;;;5072860;28;20033;-74
2023/03/23 10:47:39;;;;;;;21.85;4.10;;;15.00;99.90;;;;;;5068064;28;20523;-74
2023/03/23 10:50:16;;;;;;;21.65;4.50;;;14.60;99.90;;;;;;5052290;28;20040;-74
2023/03/23 10:52:44;;;;;;;19.48;4.10;;;14.60;99.90;;;;;;5052839;28;20051;-74
2023/03/23 10:55:14;;;;;;;20.27;4.97;;;15.40;99.90;;;;;;5068274;28;20041;-74
2023/03/23 10:57:46;;;;;;;21.60;3.92;;;15.40;99.90;;;;;;5068751;28;20044;-74
2023/03/23 11:00:26;;;;;;;17.70;4.55;;;14.90;99.90;;;;;;5073764;28;20498;-74
2023/03/23 11:03:15;;;;;;;18.98;4.78;;;14.80;99.90;;;;;;5078995;28;20035;-73
2023/03/23 11:05:59;;;;;;;25.35;4.82;;;14.70;99.90;;;;;;5066448;28;20052;-74
2023/03/23 11:08:33;;;;;;;22.50;4.32;;;14.50;99.90;;;;;;5077377;28;20395;-74
2023/03/23 11:11:19;;;;;;;22.45;4.70;;;14.40;99.90;;;;;;5056921;28;20028;-74
2023/03/23 11:13:47;;;;;;;23.52;4.78;;;14.60;99.90;;;;;;5056767;28;20036;-74
2023/03/23 11:16:29;;;;;;;22.88;4.03;;;14.90;99.90;;;;;;5056316;28;20396;-74
2023/03/23 11:18:55;;;;;;;16.58;4.22;;;15.60;99.90;;;;;;5042964;28;20052;-74
2023/03/23 11:21:23;;;;;;;19.27;4.63;;;14.60;99.90;;;;;;5035664;28;20041;-74
2023/03/23 11:23:54;;;;;;;24.05;4.65;;;14.80;99.90;;;;;;5053338;28;20416;-73
2023/03/23 11:26:28;;;;;;;17.40;4.22;;;14.60;99.90;;;;;;5073500;28;20407;-74
2023/03/23 11:29:04;;;;;;;18.00;4.28;;;14.40;99.90;;;;;;5073903;28;20444;-74
2023/03/23 11:31:36;;;;;;;17.95;4.93;;;14.40;99.90;;;;;;5055586;28;20032;-74
2023/03/23 11:34:12;;;;;;;21.23;3.75;;;14.40;99.90;;;;;;5072832;28;20048;-74
2023/03/23 11:36:41;;;;;;;18.15;3.85;;;14.30;99.90;;;;;;5072804;28;20067;-74
2023/03/23 11:39:22;;;;;;;13.38;3.58;;;14.70;99.90;;;;;;5056235;28;20630;-74
2023/03/23 11:41:48;;;;;;;19.67;3.75;;;14.80;99.90;;;;;;5056773;28;20047;-74
2023/03/23 11:44:15;;;;;;;17.90;3.20;;;;;;;;;;5055633;28;20036;-74
2023/03/23 11:47:16;;;;;;;22.75;4.85;;;14.20;99.90;;;;;;5056950;28;20399;-73
2023/03/23 11:49:52;;;;;;;17.80;4.22;;;14.20;99.90;;;;;;5047635;28;20416;-74
2023/03/23 11:52:28;;;;;;;20.17;3.72;;;14.30;99.90;;;;;;5078111;28;20040;-74
2023/03/23 11:55:05;;;;;;;15.57;3.70;;;14.40;99.90;;;;;;5078677;28;20511;-74
2023/03/23 11:57:30;;;;;;;14.27;3.05;;;14.70;99.90;;;;;;5079643;28;20052;-74
2023/03/23 12:00:00;;;;;;;12.65;3.05;;;14.30;99.90;;;;;;5073060;28;20484;-74
2023/03/23 12:02:47;;;;;;;14.52;3.35;;;15.30;99.90;;;;;;5065315;28;20056;-74
2023/03/23 12:05:22;;;;;;;25.30;4.60;;;14.10;99.90;;;;;;5068988;28;20123;-74
2023/03/23 12:08:04;;;;;;;17.52;3.30;;;14.40;99.90;;;;;;5056614;28;20136;-72
2023/03/23 12:10:47;;;;;;;15.23;3.23;;;14.70;99.90;;;;;;5043284;28;20032;-73
2023/03/23 12:13:30;;;;;;;12.25;4.13;;;14.70;99.90;;;;;;5081530;28;20077;-74
2023/03/23 12:16:21;;;;;;;13.48;3.08;;;14.80;99.90;;;;;;5067737;28;20040;-74
2023/03/23 12:19:10;;;;;;;15.93;3.00;;;14.80;99.90;;;;;;5068449;28;20043;-74
2023/03/23 12:21:51;;;;;;;19.45;3.58;;;15.50;99.90;;;;;;5067828;28;20033;-73
2023/03/23 12:24:48;;;;;;;17.17;4.38;;;15.20;99.90;;;;;;5058201;28;20037;-74
2023/03/23 12:27:15;;;;;;;13.63;3.40;;;;;;;;;;5080114;28;20036;-74
2023/03/23 12:30:01;;;;;;;24.75;4.43;;;14.70;99.90;;;;;;5081692;28;20111;-74
2023/03/23 12:32:45;;;;;;;18.15;4.88;;;14.80;99.90;;;;;;5092706;28;20051;-74
2023/03/23 12:35:36;;;;;;;15.00;3.30;;;14.80;99.90;;;;;;5035973;28;20052;-74
2023/03/23 12:38:13;;;;;;;18.65;3.78;;;14.80;99.90;;;;;;5052667;28;20504;-74
2023/03/23 12:40:56;;;;;;;24.38;3.45;;;14.80;99.90;;;;;;5052103;28;20048;-74
2023/03/23 12:43:33;;;;;;;20.05;3.92;;;14.00;99.90;;;;;;5052102;28;20409;-74
2023/03/23 12:45:59;;;;;;;14.82;3.67;;;15.00;99.90;;;;;;5052166;28;20037;-74
2023/03/23 12:48:33;;;;;;;22.73;4.07;;;15.30;99.90;;;;;;5051982;28;20036;-74
2023/03/23 12:51:23;;;;;;;19.55;3.58;;;15.40;99.90;;;;;;5035469;28;20040;-74
2023/03/23 12:53:51;;;;;;;18.35;3.50;;;15.20;99.90;;;;;;5052028;28;20048;-74
2023/03/23 12:56:37;;;;;;;32.47;4.18;;;15.80;99.90;;;;;;5052567;28;20408;-74
2023/03/23 12:59:14;;;;;;;21.63;4.53;;;16.10;99.90;;;;;;5052029;28;20045;-74
2023/03/23 13:01:48;;;;;;;20.15;3.80;;;15.20;99.90;;;;;;5051857;28;20115;-74
2023/03/23 13:04:40;;;;;;;23.30;4.40;;;15.80;99.90;;;;;;5052067;28;20090;-74
2023/03/23 13:07:12;;;;;;;18.30;4.03;;;15.10;99.90;;;;;;5025108;28;20052;-74
2023/03/23 13:10:03;;;;;;;16.25;3.42;;;15.00;99.90;;;;;;5034784;28;20036;-74
2023/03/23 13:12:29;;;;;;;21.10;3.53;;;15.00;99.90;;;;;;5067919;28;20044;-74
2023/03/23 13:15:23;;;;;;;15.15;3.72;;;15.20;99.90;;;;;;5061676;28;20048;-74
2023/03/23 13:17:55;;;;;;;17.55;4.45;;;14.60;99.90;;;;;;5078259;28;20040;-74